This is the latest recevied weather packets stored in our database for station/object OH1KK. If no packets are shown the sender has not sent any weather packets the latest 10 day(s).
| Time | Temp. | Humidity | Pressure | Rain* | Wind** | Luminosity | Snow |
|---|---|---|---|---|---|---|---|
| 1777694671 | 5° C | 77% | 999.7 hPa | 0 mm | - | - | - |
| 1777693755 | 4.44° C | 79% | 1000.3 hPa | 0 mm | - | - | - |
| 1777691986 | 3.33° C | 82% | 1000.6 hPa | 0 mm | - | - | - |
| 1777691071 | 2.78° C | 82% | 1001 hPa | 0 mm | - | - | - |
| 1777690156 | 2.78° C | 82% | 1000.9 hPa | 0 mm | - | - | - |
| 1777689241 | 3.33° C | 81% | 1001.4 hPa | 0 mm | - | - | - |
| 1777688387 | 2.78° C | 81% | 1001.6 hPa | 0 mm | - | - | - |
| 1777687472 | 2.78° C | 82% | 1001.6 hPa | 0 mm | - | - | - |
| 1777686557 | 2.78° C | 82% | 1002.1 hPa | 0 mm | - | - | - |
| 1777685641 | 1.67° C | 84% | 1002.2 hPa | 0 mm | - | - | - |
| 1777684787 | 1.67° C | 85% | 1002.3 hPa | 0 mm | - | - | - |
| 1777683872 | 1.67° C | 84% | 1002.5 hPa | 0 mm | - | - | - |
| 1777682958 | 2.22° C | 82% | 1002.7 hPa | 0 mm | - | - | - |
| 1777682042 | 2.22° C | 82% | 1003 hPa | 0 mm | - | - | - |
| 1777681188 | 2.22° C | 83% | 1003 hPa | 0 mm | - | - | - |
| 1777680273 | 1.11° C | 85% | 1003.1 hPa | 0 mm | - | - | - |
| 1777679358 | 1.11° C | 85% | 1003 hPa | 0 mm | - | - | - |
| 1777678443 | 1.67° C | 83% | 1003.6 hPa | 0 mm | - | - | - |
| 1777677590 | 1.67° C | 83% | 1003.7 hPa | 0 mm | - | - | - |
| 1777676674 | 2.22° C | 81% | 1003.9 hPa | 0 mm | - | - | - |
| 1777675760 | 2.22° C | 80% | 1004.1 hPa | 0 mm | - | - | - |
| 1777674844 | 2.78° C | 78% | 1004.1 hPa | 0 mm | - | - | - |
| 1777673999 | 3.33° C | 77% | 1004.1 hPa | 0 mm | - | - | - |
| 1777673075 | 3.89° C | 75% | 1004.2 hPa | 0 mm | - | - | - |
| 1777672161 | 4.44° C | 73% | 1004.2 hPa | 0 mm | - | - | - |
* Rain latest hour (hover to see other rain measurements)
** Current wind speed in m/s (hover to see current wind gust speed)